createdAt,value
2022-11-10T00:01:09.213Z,7.70
2022-11-10T00:03:37.649Z,7.70
2022-11-10T00:06:05.968Z,7.80
2022-11-10T00:08:33.160Z,7.80
2022-11-10T00:11:06.468Z,7.90
2022-11-10T00:13:35.749Z,7.90
2022-11-10T00:16:24.090Z,7.90
2022-11-10T00:18:51.336Z,8.00
2022-11-10T00:21:18.612Z,8.00
2022-11-10T00:23:47.712Z,8.00
2022-11-10T00:26:19.743Z,8.10
2022-11-10T00:28:47.182Z,8.10
2022-11-10T00:31:14.109Z,8.10
2022-11-10T00:33:43.721Z,8.10
2022-11-10T00:36:11.050Z,8.20
2022-11-10T00:38:41.007Z,8.20
2022-11-10T00:41:08.057Z,8.20
2022-11-10T00:43:35.602Z,8.20
2022-11-10T00:46:02.548Z,8.20
2022-11-10T00:48:29.423Z,8.20
2022-11-10T00:50:56.574Z,8.20
2022-11-10T00:53:23.774Z,8.20
2022-11-10T00:55:50.933Z,8.20
2022-11-10T00:58:18.186Z,8.20
2022-11-10T01:00:45.287Z,8.30
2022-11-10T01:03:17.675Z,8.30
2022-11-10T01:05:44.981Z,8.20
2022-11-10T01:08:11.913Z,8.20
2022-11-10T01:10:38.817Z,8.20
2022-11-10T01:13:06.311Z,8.10
2022-11-10T01:15:33.136Z,8.10
2022-11-10T01:18:00.080Z,8.00
2022-11-10T01:20:27.288Z,8.00
2022-11-10T01:22:54.207Z,8.00
2022-11-10T01:25:21.343Z,8.00
2022-11-10T01:27:48.286Z,8.00
2022-11-10T01:30:15.490Z,8.00
2022-11-10T01:32:42.955Z,8.00
2022-11-10T01:35:10.576Z,8.00
2022-11-10T01:37:38.306Z,8.00
2022-11-10T01:40:06.811Z,8.00
2022-11-10T01:42:54.662Z,8.00
2022-11-10T01:45:24.756Z,8.00
2022-11-10T01:47:54.845Z,8.00
2022-11-10T01:50:24.500Z,8.00
2022-11-10T01:52:55.045Z,8.10
2022-11-10T01:55:23.198Z,8.00
2022-11-10T01:57:51.081Z,8.00
2022-11-10T02:00:19.006Z,8.00
2022-11-10T02:03:36.716Z,8.00
2022-11-10T02:06:04.598Z,7.90
2022-11-10T02:08:31.685Z,8.00
2022-11-10T02:10:58.861Z,8.00
2022-11-10T02:13:26.078Z,7.90
2022-11-10T02:15:53.059Z,8.00
2022-11-10T02:18:20.791Z,8.00
2022-11-10T02:20:47.838Z,8.00
2022-11-10T02:23:35.900Z,8.00
2022-11-10T02:26:05.484Z,7.90
2022-11-10T02:28:37.795Z,7.90
2022-11-10T02:31:05.950Z,8.00
2022-11-10T02:33:32.802Z,7.90
2022-11-10T02:35:59.652Z,8.00
2022-11-10T02:38:26.869Z,8.00
2022-11-10T02:40:53.829Z,8.00
2022-11-10T02:43:20.943Z,7.90
2022-11-10T02:45:48.343Z,8.00
2022-11-10T02:48:15.846Z,8.00
2022-11-10T02:50:43.711Z,8.00
2022-11-10T02:53:11.052Z,8.00
2022-11-10T02:55:38.387Z,8.00
2022-11-10T02:58:06.002Z,8.00
2022-11-10T03:00:32.950Z,8.10
2022-11-10T03:03:03.818Z,8.10
2022-11-10T03:05:31.724Z,8.10
2022-11-10T03:08:01.573Z,8.10
2022-11-10T03:10:29.929Z,8.10
2022-11-10T03:12:59.210Z,8.20
2022-11-10T03:15:26.937Z,8.20
2022-11-10T03:17:54.254Z,8.20
2022-11-10T03:20:21.542Z,8.20
2022-11-10T03:22:48.522Z,8.30
2022-11-10T03:25:15.850Z,8.30
2022-11-10T03:27:42.989Z,8.20
2022-11-10T03:30:10.467Z,8.30
2022-11-10T03:32:37.341Z,8.30
2022-11-10T03:35:04.768Z,8.20
2022-11-10T03:37:31.615Z,8.20
2022-11-10T03:39:58.521Z,8.20
2022-11-10T03:42:25.689Z,8.20
2022-11-10T03:44:52.550Z,8.10
2022-11-10T03:47:19.717Z,8.20
2022-11-10T03:49:46.871Z,8.20
2022-11-10T03:52:13.689Z,8.20
2022-11-10T03:54:40.613Z,8.20
2022-11-10T03:57:07.805Z,8.20
2022-11-10T03:59:34.630Z,8.20
2022-11-10T04:02:01.587Z,8.20
2022-11-10T04:04:47.421Z,8.20
2022-11-10T04:07:32.853Z,8.30
2022-11-10T04:10:00.042Z,8.30
2022-11-10T04:12:45.785Z,8.30
2022-11-10T04:15:31.936Z,8.30
2022-11-10T04:18:19.064Z,8.40
2022-11-10T04:20:47.021Z,8.40
2022-11-10T04:23:26.812Z,8.40
2022-11-10T04:26:27.018Z,8.40
2022-11-10T04:28:55.927Z,8.50
2022-11-10T04:31:24.985Z,8.50
2022-11-10T04:33:52.818Z,8.50
2022-11-10T04:36:22.989Z,8.50
2022-11-10T04:38:50.156Z,8.60
2022-11-10T04:41:17.997Z,8.60
2022-11-10T04:43:45.110Z,8.60
2022-11-10T04:46:32.701Z,8.60
2022-11-10T04:49:00.453Z,8.60
2022-11-10T04:51:30.026Z,8.60
2022-11-10T04:53:57.567Z,8.60
2022-11-10T04:56:26.013Z,8.60
2022-11-10T04:58:55.327Z,8.60
2022-11-10T05:01:25.170Z,8.70
2022-11-10T05:03:53.183Z,8.70
2022-11-10T05:06:20.886Z,8.70
2022-11-10T05:08:47.897Z,8.70
2022-11-10T05:11:15.192Z,8.70
2022-11-10T05:13:43.598Z,8.70
2022-11-10T05:16:11.439Z,8.70
2022-11-10T05:18:38.683Z,8.70
2022-11-10T05:21:06.162Z,8.70
2022-11-10T05:23:39.455Z,8.70
2022-11-10T05:26:17.720Z,8.70
2022-11-10T05:28:45.847Z,8.70
2022-11-10T05:31:13.614Z,8.80
2022-11-10T05:33:41.637Z,8.80
2022-11-10T05:36:10.058Z,8.80
2022-11-10T05:38:42.971Z,8.90
2022-11-10T05:41:10.818Z,8.80
2022-11-10T05:43:38.373Z,8.80
2022-11-10T05:46:05.353Z,8.80
2022-11-10T05:48:32.205Z,8.80
2022-11-10T05:50:59.352Z,8.80
2022-11-10T05:53:26.829Z,8.80
2022-11-10T05:55:53.718Z,8.80
2022-11-10T05:58:20.987Z,8.90
2022-11-10T06:00:47.952Z,8.90
2022-11-10T06:03:19.856Z,8.90
2022-11-10T06:05:47.492Z,8.90
2022-11-10T06:08:14.644Z,8.90
2022-11-10T06:10:41.669Z,8.90
2022-11-10T06:13:10.627Z,9.00
2022-11-10T06:15:37.545Z,8.90
2022-11-10T06:18:04.592Z,9.00
2022-11-10T06:20:32.162Z,8.90
2022-11-10T06:23:00.096Z,8.90
2022-11-10T06:25:29.056Z,9.00
2022-11-10T06:27:56.373Z,9.00
2022-11-10T06:30:23.720Z,9.10
2022-11-10T06:32:50.905Z,9.00
2022-11-10T06:35:18.068Z,9.10
2022-11-10T06:37:45.547Z,9.10
2022-11-10T06:40:16.457Z,9.10
2022-11-10T06:42:43.959Z,9.20
2022-11-10T06:45:10.928Z,9.20
2022-11-10T06:47:38.219Z,9.20
2022-11-10T06:50:05.522Z,9.30
2022-11-10T06:52:32.796Z,9.30
2022-11-10T06:54:59.755Z,9.30
2022-11-10T06:57:27.275Z,9.30
2022-11-10T06:59:54.486Z,9.30
2022-11-10T07:02:21.896Z,9.30
2022-11-10T07:04:50.763Z,9.30
2022-11-10T07:07:18.031Z,9.40
2022-11-10T07:09:44.944Z,9.40
2022-11-10T07:12:12.292Z,9.50
2022-11-10T07:14:39.172Z,9.50
2022-11-10T07:17:06.117Z,9.50
2022-11-10T07:19:33.336Z,9.50
2022-11-10T07:22:00.497Z,9.50
2022-11-10T07:24:30.392Z,9.60
2022-11-10T07:26:58.035Z,9.60
2022-11-10T07:29:26.485Z,9.70
2022-11-10T07:31:53.698Z,9.70
2022-11-10T07:34:21.354Z,9.70
2022-11-10T07:36:48.611Z,9.70
2022-11-10T07:39:15.932Z,9.70
2022-11-10T07:41:42.860Z,9.80
2022-11-10T07:44:10.125Z,9.90
2022-11-10T07:46:36.961Z,10.00
2022-11-10T07:49:04.139Z,10.20
2022-11-10T07:51:31.371Z,10.20
2022-11-10T07:53:58.652Z,10.30
2022-11-10T07:56:26.617Z,10.30
2022-11-10T07:58:53.766Z,10.30
2022-11-10T08:01:20.740Z,10.30
2022-11-10T08:03:47.889Z,10.20
2022-11-10T08:06:14.822Z,10.20
2022-11-10T08:08:42.139Z,10.20
2022-11-10T08:11:09.037Z,10.30
2022-11-10T08:13:36.604Z,10.30
2022-11-10T08:16:03.688Z,10.40
2022-11-10T08:18:35.074Z,10.50
2022-11-10T08:21:04.021Z,10.60
2022-11-10T08:23:31.424Z,10.70
2022-11-10T08:25:59.715Z,10.70
2022-11-10T08:28:27.468Z,10.60
2022-11-10T08:30:54.519Z,10.60
2022-11-10T08:33:22.897Z,10.60
2022-11-10T08:35:51.796Z,10.60
2022-11-10T08:38:21.765Z,10.50
2022-11-10T08:40:49.034Z,10.50
2022-11-10T08:43:17.817Z,10.60
2022-11-10T08:45:45.553Z,10.70
2022-11-10T08:48:18.335Z,10.90
2022-11-10T08:50:46.220Z,11.00
2022-11-10T08:53:15.425Z,11.00
2022-11-10T08:55:43.398Z,11.00
2022-11-10T08:58:19.552Z,11.00
2022-11-10T09:00:46.492Z,11.00
2022-11-10T09:03:16.066Z,10.90
2022-11-10T09:05:43.679Z,10.90
2022-11-10T09:08:11.658Z,10.90
2022-11-10T09:10:44.509Z,11.00
2022-11-10T09:13:12.150Z,11.10
2022-11-10T09:15:40.053Z,11.30
2022-11-10T09:18:07.915Z,11.40
2022-11-10T09:20:37.587Z,11.50
2022-11-10T09:23:06.448Z,11.50
2022-11-10T09:25:33.413Z,11.60
2022-11-10T09:28:00.705Z,11.70
2022-11-10T09:30:28.461Z,11.80
2022-11-10T09:32:58.043Z,11.90
2022-11-10T09:35:25.825Z,11.90
2022-11-10T09:37:53.128Z,12.00
2022-11-10T09:40:29.838Z,11.90
2022-11-10T09:43:01.136Z,11.90
2022-11-10T09:45:39.731Z,11.90
2022-11-10T09:48:25.775Z,11.90
2022-11-10T09:51:04.155Z,12.00
2022-11-10T09:53:37.303Z,12.00
2022-11-10T09:56:06.139Z,12.00
2022-11-10T09:58:52.102Z,12.10
2022-11-10T10:01:35.532Z,12.10
2022-11-10T10:04:27.119Z,12.10
2022-11-10T10:07:11.028Z,12.20
2022-11-10T10:09:54.812Z,12.20
2022-11-10T10:12:39.724Z,12.10
2022-11-10T10:15:12.829Z,12.10
2022-11-10T10:17:54.993Z,12.20
2022-11-10T10:20:43.168Z,12.20
2022-11-10T10:23:46.927Z,12.20
2022-11-10T10:26:18.676Z,12.20
2022-11-10T10:28:47.638Z,12.40
2022-11-10T10:31:19.862Z,12.40
2022-11-10T10:33:48.476Z,12.40
2022-11-10T10:36:26.468Z,12.50
2022-11-10T10:39:06.318Z,12.50
2022-11-10T10:41:36.258Z,12.60
2022-11-10T10:44:13.854Z,12.70
2022-11-10T10:46:56.429Z,12.80
2022-11-10T10:49:29.723Z,12.80
2022-11-10T10:52:15.180Z,12.80
2022-11-10T10:54:42.121Z,12.80
2022-11-10T10:57:27.514Z,12.80
2022-11-10T11:00:23.481Z,12.90
2022-11-10T11:03:36.977Z,12.90
2022-11-10T11:06:27.058Z,12.90
2022-11-10T11:09:01.609Z,12.90
2022-11-10T11:11:37.145Z,12.80
2022-11-10T11:14:19.640Z,12.70
2022-11-10T11:16:49.521Z,12.70
2022-11-10T11:19:18.444Z,12.60
2022-11-10T11:21:56.722Z,12.60
2022-11-10T11:24:51.180Z,12.70
2022-11-10T11:27:20.663Z,12.60
2022-11-10T11:30:09.021Z,12.60
2022-11-10T11:32:50.932Z,12.40
2022-11-10T11:35:31.782Z,12.40
2022-11-10T11:38:13.277Z,12.40
2022-11-10T11:40:47.492Z,12.30
2022-11-10T11:43:48.865Z,12.40
2022-11-10T11:46:34.817Z,12.40
2022-11-10T11:49:27.377Z,12.50
2022-11-10T11:52:12.666Z,12.50
2022-11-10T11:54:51.333Z,12.60
2022-11-10T11:57:44.129Z,12.70
2022-11-10T12:00:16.447Z,12.70
2022-11-10T12:03:09.771Z,12.70
2022-11-10T12:05:58.287Z,12.70
2022-11-10T12:08:39.516Z,12.80
2022-11-10T12:11:20.202Z,12.80
2022-11-10T12:14:00.990Z,12.60
2022-11-10T12:16:33.585Z,12.50
2022-11-10T12:19:16.311Z,12.50
2022-11-10T12:21:54.449Z,12.50
2022-11-10T12:24:52.508Z,12.50
2022-11-10T12:27:35.578Z,12.70
2022-11-10T12:30:13.423Z,12.80
2022-11-10T12:33:05.311Z,12.90
2022-11-10T12:35:41.400Z,13.20
2022-11-10T12:38:13.526Z,13.30
2022-11-10T12:40:47.201Z,13.20
2022-11-10T12:43:33.774Z,13.10
2022-11-10T12:46:06.374Z,13.10
2022-11-10T12:49:05.983Z,13.10
2022-11-10T12:51:54.048Z,13.10
2022-11-10T12:54:23.713Z,13.00
2022-11-10T12:56:55.793Z,12.80
2022-11-10T12:59:25.994Z,12.50
2022-11-10T13:02:03.248Z,12.20
2022-11-10T13:04:30.905Z,12.00
2022-11-10T13:07:07.681Z,11.80
2022-11-10T13:09:42.593Z,11.70
2022-11-10T13:12:24.394Z,11.60
2022-11-10T13:14:51.274Z,11.60
2022-11-10T13:17:27.998Z,11.60
2022-11-10T13:19:58.993Z,11.60
2022-11-10T13:22:37.075Z,11.60
2022-11-10T13:25:37.972Z,11.50
2022-11-10T13:28:07.995Z,11.70
2022-11-10T13:30:43.725Z,11.90
2022-11-10T13:33:23.262Z,12.20
2022-11-10T13:35:55.433Z,12.50
2022-11-10T13:38:32.268Z,12.60
2022-11-10T13:41:17.590Z,12.70
2022-11-10T13:43:53.205Z,12.70
2022-11-10T13:46:31.129Z,12.50
2022-11-10T13:49:15.521Z,12.30
2022-11-10T13:51:45.465Z,12.10
2022-11-10T13:54:33.070Z,11.90
2022-11-10T13:57:05.611Z,11.70
2022-11-10T13:59:44.443Z,11.40
2022-11-10T14:02:33.748Z,11.30
2022-11-10T14:05:02.627Z,11.20
2022-11-10T14:07:36.637Z,11.10
2022-11-10T14:10:10.966Z,11.00
2022-11-10T14:12:41.922Z,10.90
2022-11-10T14:15:19.905Z,10.80
2022-11-10T14:17:51.460Z,10.80
2022-11-10T14:20:27.374Z,10.70
2022-11-10T14:22:55.204Z,10.60
2022-11-10T14:25:36.069Z,10.50
2022-11-10T14:28:17.267Z,10.50
2022-11-10T14:30:51.796Z,10.40
2022-11-10T14:33:18.841Z,10.30
2022-11-10T14:35:56.145Z,10.20
2022-11-10T14:38:29.319Z,10.10
2022-11-10T14:41:00.489Z,10.00
2022-11-10T14:43:36.433Z,9.90
2022-11-10T14:46:06.642Z,9.80
2022-11-10T14:48:39.192Z,9.80
2022-11-10T14:51:15.780Z,9.70
2022-11-10T14:53:51.147Z,9.60
2022-11-10T14:56:31.988Z,9.60
2022-11-10T14:59:02.576Z,9.60
2022-11-10T15:01:33.832Z,9.50
2022-11-10T15:04:06.590Z,9.60
2022-11-10T15:06:34.856Z,9.60
2022-11-10T15:09:14.228Z,9.70
2022-11-10T15:11:49.328Z,9.60
2022-11-10T15:14:35.461Z,9.50
2022-11-10T15:17:08.240Z,9.40
2022-11-10T15:19:53.462Z,9.30
2022-11-10T15:22:33.952Z,9.20
2022-11-10T15:25:07.579Z,9.10
2022-11-10T15:27:36.381Z,9.10
2022-11-10T15:30:19.894Z,9.00
2022-11-10T15:32:49.229Z,9.00
2022-11-10T15:35:28.588Z,8.90
2022-11-10T15:38:21.091Z,8.90
2022-11-10T15:40:51.551Z,8.80
2022-11-10T15:43:27.809Z,8.80
2022-11-10T15:46:03.405Z,8.80
2022-11-10T15:48:41.203Z,8.70
2022-11-10T15:51:13.583Z,8.70
2022-11-10T15:53:46.552Z,8.70
2022-11-10T15:56:18.853Z,8.70
2022-11-10T15:58:51.778Z,8.70
2022-11-10T16:01:18.927Z,8.70
2022-11-10T16:03:46.478Z,8.60
2022-11-10T16:06:15.051Z,8.60
2022-11-10T16:08:42.184Z,8.50
2022-11-10T16:11:22.625Z,8.50
2022-11-10T16:13:51.840Z,8.50
2022-11-10T16:16:20.429Z,8.40
2022-11-10T16:18:47.358Z,8.40
2022-11-10T16:21:16.203Z,8.30
2022-11-10T16:23:43.901Z,8.20
2022-11-10T16:26:15.091Z,8.20
2022-11-10T16:28:47.608Z,8.10
2022-11-10T16:31:16.317Z,8.10
2022-11-10T16:33:43.352Z,8.10
2022-11-10T16:36:17.043Z,8.00
2022-11-10T16:38:44.494Z,8.00
2022-11-10T16:41:16.566Z,8.00
2022-11-10T16:43:43.438Z,7.90
2022-11-10T16:46:21.706Z,7.90
2022-11-10T16:48:50.086Z,7.80
2022-11-10T16:51:18.112Z,7.80
2022-11-10T16:53:45.542Z,7.80
2022-11-10T16:56:16.993Z,7.80
2022-11-10T16:58:44.526Z,7.80
2022-11-10T17:01:19.627Z,7.80
2022-11-10T17:03:50.466Z,7.80
2022-11-10T17:06:18.881Z,7.80
2022-11-10T17:08:51.291Z,7.80
2022-11-10T17:11:18.731Z,7.80
2022-11-10T17:13:45.712Z,7.80
2022-11-10T17:16:29.457Z,7.80
2022-11-10T17:18:59.817Z,7.70
2022-11-10T17:21:32.910Z,7.70
2022-11-10T17:24:00.738Z,7.70
2022-11-10T17:26:28.667Z,7.70
2022-11-10T17:28:55.582Z,7.70
2022-11-10T17:31:22.603Z,7.60
2022-11-10T17:33:50.277Z,7.70
2022-11-10T17:36:22.756Z,7.60
2022-11-10T17:38:51.445Z,7.50
2022-11-10T17:41:19.890Z,7.40
2022-11-10T17:43:47.712Z,7.30
2022-11-10T17:46:15.355Z,7.30
2022-11-10T17:48:43.129Z,7.30
2022-11-10T17:51:18.056Z,7.20
2022-11-10T17:53:45.234Z,7.20
2022-11-10T17:56:12.920Z,7.20
2022-11-10T17:58:39.925Z,7.10
2022-11-10T18:01:18.688Z,7.10
2022-11-10T18:03:46.631Z,7.00
2022-11-10T18:06:19.738Z,7.00
2022-11-10T18:08:47.299Z,7.00
2022-11-10T18:11:17.525Z,6.90
2022-11-10T18:13:44.911Z,6.90
2022-11-10T18:16:16.379Z,6.90
2022-11-10T18:18:43.575Z,6.90
2022-11-10T18:21:10.660Z,6.90
2022-11-10T18:23:37.868Z,6.90
2022-11-10T18:26:07.121Z,6.80
2022-11-10T18:28:35.321Z,6.80
2022-11-10T18:31:10.361Z,6.80
2022-11-10T18:33:37.648Z,6.80
2022-11-10T18:36:04.878Z,6.80
2022-11-10T18:38:32.860Z,6.80
2022-11-10T18:41:25.379Z,6.80
2022-11-10T18:43:53.054Z,6.80
2022-11-10T18:46:19.947Z,6.70
2022-11-10T18:48:47.753Z,6.70
2022-11-10T18:51:16.600Z,6.70
2022-11-10T18:53:44.153Z,6.60
2022-11-10T18:56:11.258Z,6.60
2022-11-10T18:58:38.119Z,6.60
2022-11-10T19:01:07.203Z,6.60
2022-11-10T19:03:35.410Z,6.60
2022-11-10T19:06:03.533Z,6.60
2022-11-10T19:08:30.438Z,6.60
2022-11-10T19:10:57.730Z,6.60
2022-11-10T19:13:24.926Z,6.60
2022-11-10T19:15:52.338Z,6.50
2022-11-10T19:18:19.207Z,6.50
2022-11-10T19:20:46.318Z,6.60
2022-11-10T19:23:13.172Z,6.60
2022-11-10T19:25:40.349Z,6.60
2022-11-10T19:28:11.353Z,6.60
2022-11-10T19:30:39.392Z,6.50
2022-11-10T19:33:06.490Z,6.50
2022-11-10T19:35:33.690Z,6.40
2022-11-10T19:38:00.545Z,6.40
2022-11-10T19:40:28.043Z,6.30
2022-11-10T19:42:55.148Z,6.30
2022-11-10T19:45:22.353Z,6.30
2022-11-10T19:47:49.252Z,6.30
2022-11-10T19:50:18.673Z,6.30
2022-11-10T19:52:45.532Z,6.30
2022-11-10T19:55:12.681Z,6.30
2022-11-10T19:57:39.613Z,6.20
2022-11-10T20:00:07.570Z,6.30
2022-11-10T20:02:34.478Z,6.30
2022-11-10T20:05:13.505Z,6.30
2022-11-10T20:07:59.294Z,6.30
2022-11-10T20:10:26.635Z,6.30
2022-11-10T20:12:53.502Z,6.30
2022-11-10T20:15:20.661Z,6.30
2022-11-10T20:17:47.587Z,6.40
2022-11-10T20:20:15.482Z,6.40
2022-11-10T20:22:42.333Z,6.40
2022-11-10T20:25:09.892Z,6.40
2022-11-10T20:27:36.936Z,6.40
2022-11-10T20:30:05.157Z,6.40
2022-11-10T20:32:32.084Z,6.40
2022-11-10T20:35:00.588Z,6.40
2022-11-10T20:37:27.491Z,6.40
2022-11-10T20:39:54.606Z,6.40
2022-11-10T20:42:21.508Z,6.40
2022-11-10T20:44:48.747Z,6.40
2022-11-10T20:47:15.824Z,6.40
2022-11-10T20:49:43.186Z,6.40
2022-11-10T20:52:10.493Z,6.40
2022-11-10T20:54:39.909Z,6.40
2022-11-10T20:57:06.773Z,6.40
2022-11-10T20:59:33.955Z,6.40
2022-11-10T21:02:00.864Z,6.40
2022-11-10T21:04:28.102Z,6.40
2022-11-10T21:06:55.092Z,6.40
2022-11-10T21:09:22.409Z,6.30
2022-11-10T21:12:07.912Z,6.40
2022-11-10T21:14:35.301Z,6.30
2022-11-10T21:17:02.449Z,6.30
2022-11-10T21:19:33.669Z,6.20
2022-11-10T21:22:01.165Z,6.20
2022-11-10T21:24:29.230Z,6.20
2022-11-10T21:26:57.045Z,6.20
2022-11-10T21:29:24.272Z,6.20
2022-11-10T21:31:51.263Z,6.20
2022-11-10T21:34:18.667Z,6.20
2022-11-10T21:36:45.551Z,6.20
2022-11-10T21:39:12.926Z,6.20
2022-11-10T21:41:39.792Z,6.20
2022-11-10T21:44:07.172Z,6.20
2022-11-10T21:46:34.143Z,6.30
2022-11-10T21:49:06.162Z,6.20
2022-11-10T21:51:34.729Z,6.30
2022-11-10T21:54:01.535Z,6.20
2022-11-10T21:56:28.735Z,6.20
2022-11-10T21:58:55.593Z,6.20
2022-11-10T22:01:22.544Z,6.20
2022-11-10T22:03:50.068Z,6.20
2022-11-10T22:06:18.626Z,6.20
2022-11-10T22:08:47.171Z,6.20
2022-11-10T22:11:35.412Z,6.20
2022-11-10T22:14:20.923Z,6.20
2022-11-10T22:17:08.701Z,6.20
2022-11-10T22:19:36.965Z,6.20
2022-11-10T22:22:04.606Z,6.20
2022-11-10T22:24:31.894Z,6.20
2022-11-10T22:27:01.695Z,6.10
2022-11-10T22:29:33.487Z,6.10
2022-11-10T22:32:01.261Z,6.10
2022-11-10T22:34:28.378Z,6.10
2022-11-10T22:36:55.275Z,6.10
2022-11-10T22:39:22.572Z,6.10
2022-11-10T22:42:08.625Z,6.10
2022-11-10T22:44:36.484Z,6.10
2022-11-10T22:47:03.506Z,6.10
2022-11-10T22:49:30.356Z,6.20
2022-11-10T22:51:57.475Z,6.20
2022-11-10T22:54:24.776Z,6.20
2022-11-10T22:56:52.055Z,6.10
2022-11-10T22:59:19.509Z,6.10
2022-11-10T23:01:46.919Z,6.10
2022-11-10T23:04:16.031Z,6.10
2022-11-10T23:06:43.163Z,6.10
2022-11-10T23:09:10.458Z,6.20
2022-11-10T23:11:37.488Z,6.20
2022-11-10T23:14:04.589Z,6.20
2022-11-10T23:16:34.505Z,6.20
2022-11-10T23:19:02.360Z,6.20
2022-11-10T23:21:30.420Z,6.20
2022-11-10T23:23:58.292Z,6.20
2022-11-10T23:26:27.525Z,6.30
2022-11-10T23:28:54.758Z,6.30
2022-11-10T23:31:26.618Z,6.40
2022-11-10T23:33:55.743Z,6.40
2022-11-10T23:36:24.874Z,6.40
2022-11-10T23:38:52.292Z,6.40
2022-11-10T23:41:21.121Z,6.40
2022-11-10T23:43:48.563Z,6.50
2022-11-10T23:46:15.937Z,6.40
2022-11-10T23:48:43.272Z,6.50
2022-11-10T23:51:12.204Z,6.50
2022-11-10T23:53:39.711Z,6.50
2022-11-10T23:56:11.878Z,6.50
2022-11-10T23:58:39.069Z,6.50
